createdAt,value
2022-12-16T00:00:15.909Z,30.58
2022-12-16T00:01:19.954Z,33.70
2022-12-16T00:02:22.665Z,34.95
2022-12-16T00:03:24.325Z,32.38
2022-12-16T00:04:26.069Z,30.27
2022-12-16T00:05:29.117Z,30.20
2022-12-16T00:06:32.604Z,31.08
2022-12-16T00:07:34.998Z,31.48
2022-12-16T00:08:39.400Z,30.80
2022-12-16T00:09:41.010Z,27.13
2022-12-16T00:10:55.099Z,27.15
2022-12-16T00:11:56.743Z,30.27
2022-12-16T00:12:58.330Z,29.55
2022-12-16T00:14:00.373Z,33.10
2022-12-16T00:15:02.016Z,28.17
2022-12-16T00:16:15.389Z,25.50
2022-12-16T00:17:17.031Z,29.05
2022-12-16T00:18:19.986Z,25.38
2022-12-16T00:19:21.794Z,27.00
2022-12-16T00:20:23.345Z,27.42
2022-12-16T00:21:29.390Z,23.65
2022-12-16T00:22:31.020Z,27.35
2022-12-16T00:23:33.943Z,24.95
2022-12-16T00:24:36.000Z,29.45
2022-12-16T00:25:37.582Z,25.52
2022-12-16T00:26:39.197Z,27.83
2022-12-16T00:27:40.777Z,26.42
2022-12-16T00:28:43.747Z,27.80
2022-12-16T00:29:45.398Z,26.98
2022-12-16T00:30:49.876Z,26.92
2022-12-16T00:31:51.673Z,28.65
2022-12-16T00:32:54.270Z,25.50
2022-12-16T00:33:57.219Z,26.77
2022-12-16T00:34:58.997Z,25.48
2022-12-16T00:36:00.572Z,26.45
2022-12-16T00:37:02.172Z,27.23
2022-12-16T00:38:05.942Z,25.35
2022-12-16T00:39:07.540Z,27.92
2022-12-16T00:40:09.806Z,24.63
2022-12-16T00:41:11.374Z,25.50
2022-12-16T00:42:12.948Z,27.40
2022-12-16T00:43:14.820Z,27.23
2022-12-16T00:44:16.806Z,27.38
2022-12-16T00:45:19.245Z,29.42
2022-12-16T00:46:20.894Z,29.60
2022-12-16T00:47:22.529Z,26.55
2022-12-16T00:48:24.133Z,26.85
2022-12-16T00:49:25.684Z,27.50
2022-12-16T00:50:27.653Z,26.65
2022-12-16T00:51:29.213Z,28.10
2022-12-16T00:52:30.928Z,27.50
2022-12-16T00:53:32.995Z,26.88
2022-12-16T00:54:34.899Z,26.63
2022-12-16T00:55:36.524Z,27.42
2022-12-16T00:56:38.110Z,30.77
2022-12-16T00:57:40.113Z,28.90
2022-12-16T00:58:42.492Z,29.77
2022-12-16T00:59:44.118Z,27.80
2022-12-16T01:00:45.802Z,26.42
2022-12-16T01:01:47.510Z,25.30
2022-12-16T01:02:51.483Z,27.95
2022-12-16T01:03:58.322Z,23.90
2022-12-16T01:04:59.937Z,29.42
2022-12-16T01:06:01.676Z,27.75
2022-12-16T01:07:03.351Z,29.88
2022-12-16T01:08:05.058Z,27.45
2022-12-16T01:09:06.680Z,26.20
2022-12-16T01:10:09.441Z,27.30
2022-12-16T01:11:11.074Z,24.92
2022-12-16T01:12:12.647Z,25.40
2022-12-16T01:13:14.471Z,22.98
2022-12-16T01:14:16.078Z,25.05
2022-12-16T01:15:18.664Z,25.98
2022-12-16T01:16:20.395Z,26.20
2022-12-16T01:17:22.213Z,28.23
2022-12-16T01:18:23.865Z,25.90
2022-12-16T01:19:25.575Z,30.80
2022-12-16T01:20:27.162Z,24.45
2022-12-16T01:21:28.780Z,28.15
2022-12-16T01:22:32.564Z,27.48
2022-12-16T01:23:34.953Z,25.40
2022-12-16T01:24:36.797Z,25.88
2022-12-16T01:25:38.378Z,25.00
2022-12-16T01:26:40.078Z,26.10
2022-12-16T01:27:41.775Z,24.50
2022-12-16T01:28:43.703Z,24.75
2022-12-16T01:29:45.296Z,26.25
2022-12-16T01:30:46.882Z,28.40
2022-12-16T01:31:48.537Z,25.67
2022-12-16T01:32:50.853Z,27.40
2022-12-16T01:33:52.679Z,30.85
2022-12-16T01:34:55.609Z,25.55
2022-12-16T01:36:06.505Z,25.92
2022-12-16T01:37:12.498Z,26.20
2022-12-16T01:38:14.086Z,26.00
2022-12-16T01:39:15.688Z,27.77
2022-12-16T01:40:21.137Z,28.88
2022-12-16T01:41:23.233Z,27.85
2022-12-16T01:42:28.646Z,27.48
2022-12-16T01:43:36.536Z,24.40
2022-12-16T01:44:38.475Z,25.55
2022-12-16T01:45:40.422Z,26.35
2022-12-16T01:46:44.007Z,26.90
2022-12-16T01:47:45.881Z,25.13
2022-12-16T01:48:53.706Z,26.20
2022-12-16T01:49:59.100Z,24.00
2022-12-16T01:51:18.395Z,23.25
2022-12-16T01:52:27.513Z,23.20
2022-12-16T01:53:30.571Z,26.00
2022-12-16T01:54:38.799Z,26.67
2022-12-16T01:55:48.740Z,25.48
2022-12-16T01:56:58.437Z,27.30
2022-12-16T01:58:05.723Z,24.52
2022-12-16T01:59:08.253Z,25.55
2022-12-16T02:00:10.935Z,28.20
2022-12-16T02:01:14.722Z,23.40
2022-12-16T02:02:16.873Z,29.58
2022-12-16T02:03:18.960Z,25.63
2022-12-16T02:04:20.878Z,25.13
2022-12-16T02:05:22.770Z,28.17
2022-12-16T02:06:24.543Z,26.52
2022-12-16T02:07:26.478Z,20.98
2022-12-16T02:08:28.040Z,23.95
2022-12-16T02:09:29.623Z,26.98
2022-12-16T02:10:43.351Z,26.27
2022-12-16T02:12:10.665Z,29.98
2022-12-16T02:13:15.145Z,26.55
2022-12-16T02:14:41.550Z,29.85
2022-12-16T02:16:16.795Z,28.55
2022-12-16T02:17:58.040Z,26.77
2022-12-16T02:19:10.699Z,28.30
2022-12-16T02:20:52.799Z,24.85
2022-12-16T02:22:32.535Z,26.85
2022-12-16T02:23:42.907Z,28.08
2022-12-16T02:25:06.087Z,23.25
2022-12-16T02:26:29.893Z,23.88
2022-12-16T02:28:02.073Z,26.67
2022-12-16T02:29:37.729Z,28.77
2022-12-16T02:30:51.547Z,22.80
2022-12-16T02:32:20.601Z,22.55
2022-12-16T02:33:25.241Z,25.48
2022-12-16T02:34:29.559Z,26.27
2022-12-16T02:35:43.748Z,24.70
2022-12-16T02:37:05.165Z,28.13
2022-12-16T02:38:38.070Z,27.98
2022-12-16T02:39:46.589Z,24.58
2022-12-16T02:40:56.899Z,22.98
2022-12-16T02:42:17.134Z,24.30
2022-12-16T02:44:31.232Z,25.10
2022-12-16T02:45:34.119Z,23.58
2022-12-16T02:46:51.416Z,25.10
2022-12-16T02:47:53.911Z,27.83
2022-12-16T02:48:56.829Z,23.08
2022-12-16T02:49:59.538Z,25.25
2022-12-16T02:51:01.496Z,23.90
2022-12-16T02:52:03.160Z,26.20
2022-12-16T02:53:05.993Z,23.45
2022-12-16T02:54:09.241Z,20.65
2022-12-16T02:55:11.533Z,23.48
2022-12-16T02:56:41.063Z,26.02
2022-12-16T02:58:01.146Z,26.40
2022-12-16T02:59:15.481Z,25.23
2022-12-16T03:00:23.271Z,26.45
2022-12-16T03:01:35.129Z,22.50
2022-12-16T03:02:53.430Z,23.80
2022-12-16T03:03:57.485Z,21.20
2022-12-16T03:05:10.307Z,22.75
2022-12-16T03:06:15.796Z,22.33
2022-12-16T03:07:19.835Z,22.33
2022-12-16T03:08:28.472Z,21.35
2022-12-16T03:09:34.121Z,20.35
2022-12-16T03:10:41.886Z,19.65
2022-12-16T03:11:45.489Z,21.30
2022-12-16T03:12:47.185Z,19.95
2022-12-16T03:13:52.991Z,20.65
2022-12-16T03:14:55.141Z,21.17
2022-12-16T03:16:00.032Z,18.20
2022-12-16T03:17:02.858Z,18.88
2022-12-16T03:18:07.832Z,20.88
2022-12-16T03:19:11.746Z,20.15
2022-12-16T03:20:21.895Z,19.25
2022-12-16T03:21:29.458Z,18.00
2022-12-16T03:22:35.276Z,18.73
2022-12-16T03:23:54.093Z,20.38
2022-12-16T03:24:56.448Z,18.83
2022-12-16T03:26:06.217Z,18.77
2022-12-16T03:27:19.576Z,19.42
2022-12-16T03:28:27.939Z,22.55
2022-12-16T03:30:01.804Z,19.58
2022-12-16T03:31:19.647Z,22.48
2022-12-16T03:32:39.146Z,21.27
2022-12-16T03:34:03.942Z,18.13
2022-12-16T03:35:21.890Z,23.27
2022-12-16T03:36:26.270Z,21.02
2022-12-16T03:37:31.881Z,21.60
2022-12-16T03:38:34.665Z,21.30
2022-12-16T03:39:44.939Z,21.40
2022-12-16T03:40:46.691Z,21.63
2022-12-16T03:41:51.974Z,19.73
2022-12-16T03:42:55.269Z,20.52
2022-12-16T03:43:57.100Z,20.92
2022-12-16T03:44:58.882Z,21.42
2022-12-16T03:46:05.355Z,20.25
2022-12-16T03:47:07.043Z,23.55
2022-12-16T03:48:10.718Z,25.90
2022-12-16T03:49:12.338Z,22.20
2022-12-16T03:50:14.156Z,22.38
2022-12-16T03:51:16.468Z,24.67
2022-12-16T03:52:18.112Z,22.75
2022-12-16T03:53:19.792Z,26.23
2022-12-16T03:54:21.588Z,24.13
2022-12-16T03:55:23.327Z,24.17
2022-12-16T03:56:24.887Z,27.73
2022-12-16T03:57:26.467Z,27.55
2022-12-16T03:58:28.088Z,26.60
2022-12-16T03:59:29.735Z,22.27
2022-12-16T04:00:31.386Z,23.25
2022-12-16T04:01:33.167Z,24.10
2022-12-16T04:02:35.043Z,25.05
2022-12-16T04:03:37.795Z,25.15
2022-12-16T04:04:39.498Z,24.33
2022-12-16T04:05:41.094Z,24.00
2022-12-16T04:06:42.678Z,23.05
2022-12-16T04:07:44.316Z,21.90
2022-12-16T04:08:47.453Z,20.77
2022-12-16T04:09:50.109Z,23.90
2022-12-16T04:11:11.482Z,26.17
2022-12-16T04:12:31.924Z,22.52
2022-12-16T04:13:52.366Z,22.80
2022-12-16T04:15:12.720Z,22.98
2022-12-16T04:16:35.106Z,20.92
2022-12-16T04:17:55.565Z,22.05
2022-12-16T04:19:15.989Z,25.10
2022-12-16T04:20:36.836Z,23.13
2022-12-16T04:21:57.273Z,27.30
2022-12-16T04:23:17.775Z,24.33
2022-12-16T04:24:21.059Z,23.35
2022-12-16T04:25:32.655Z,22.23
2022-12-16T04:26:53.295Z,22.13
2022-12-16T04:27:54.910Z,28.80
2022-12-16T04:28:56.500Z,21.25
2022-12-16T04:30:16.812Z,29.35
2022-12-16T04:31:18.580Z,21.92
2022-12-16T04:32:20.262Z,22.55
2022-12-16T04:33:41.429Z,24.70
2022-12-16T04:34:43.041Z,20.85
2022-12-16T04:36:04.446Z,20.83
2022-12-16T04:37:24.778Z,20.00
2022-12-16T04:38:45.051Z,20.85
2022-12-16T04:40:05.485Z,20.52
2022-12-16T04:41:25.969Z,18.48
2022-12-16T04:42:46.245Z,17.77
2022-12-16T04:44:06.870Z,18.95
2022-12-16T04:45:27.832Z,17.58
2022-12-16T04:46:48.212Z,21.13
2022-12-16T04:48:08.472Z,18.90
2022-12-16T04:49:28.875Z,19.88
2022-12-16T04:50:49.310Z,19.17
2022-12-16T04:52:09.751Z,23.17
2022-12-16T04:53:30.441Z,19.10
2022-12-16T04:54:51.040Z,23.58
2022-12-16T04:56:11.267Z,23.75
2022-12-16T04:57:48.412Z,21.02
2022-12-16T04:59:08.583Z,21.27
2022-12-16T05:00:29.540Z,22.88
2022-12-16T05:01:50.223Z,20.25
2022-12-16T05:03:10.618Z,22.63
2022-12-16T05:04:30.778Z,21.15
2022-12-16T05:05:50.953Z,22.77
2022-12-16T05:07:11.366Z,20.42
2022-12-16T05:08:31.732Z,21.80
2022-12-16T05:09:52.082Z,20.88
2022-12-16T05:11:12.449Z,22.08
2022-12-16T05:12:32.813Z,22.35
2022-12-16T05:13:53.203Z,20.10
2022-12-16T05:15:13.543Z,19.00
2022-12-16T05:16:33.921Z,20.35
2022-12-16T05:17:54.256Z,20.50
2022-12-16T05:19:15.074Z,20.73
2022-12-16T05:20:35.339Z,21.52
2022-12-16T05:21:55.671Z,24.00
2022-12-16T05:23:16.064Z,18.30
2022-12-16T05:24:36.549Z,20.35
2022-12-16T05:25:57.102Z,20.23
2022-12-16T05:27:17.558Z,18.30
2022-12-16T05:28:38.050Z,22.42
2022-12-16T05:29:58.453Z,21.70
2022-12-16T05:31:18.756Z,19.92
2022-12-16T05:32:38.996Z,17.15
2022-12-16T05:33:59.277Z,19.65
2022-12-16T05:35:19.631Z,19.20
2022-12-16T05:36:40.144Z,18.38
2022-12-16T05:38:00.547Z,20.75
2022-12-16T05:39:20.959Z,19.00
2022-12-16T05:40:41.282Z,19.40
2022-12-16T05:42:01.529Z,19.38
2022-12-16T05:43:21.813Z,16.92
2022-12-16T05:44:42.332Z,16.75
2022-12-16T05:46:02.826Z,19.83
2022-12-16T05:47:23.048Z,19.58
2022-12-16T05:48:47.752Z,18.38
2022-12-16T05:50:08.237Z,18.08
2022-12-16T05:51:28.787Z,19.92
2022-12-16T05:52:49.201Z,18.90
2022-12-16T05:54:09.824Z,20.42
2022-12-16T05:55:33.884Z,17.05
2022-12-16T05:56:54.833Z,19.63
2022-12-16T05:58:15.427Z,19.60
2022-12-16T05:59:35.911Z,17.70
2022-12-16T06:00:56.440Z,19.88
2022-12-16T06:02:16.960Z,21.27
2022-12-16T06:03:37.531Z,25.95
2022-12-16T06:04:58.467Z,18.05
2022-12-16T06:06:18.884Z,21.15
2022-12-16T06:07:39.642Z,19.98
2022-12-16T06:08:59.966Z,20.73
2022-12-16T06:10:20.376Z,18.92
2022-12-16T06:11:40.693Z,19.33
2022-12-16T06:13:04.208Z,19.98
2022-12-16T06:14:24.727Z,21.33
2022-12-16T06:15:45.341Z,21.67
2022-12-16T06:17:05.623Z,22.33
2022-12-16T06:18:26.027Z,19.80
2022-12-16T06:19:46.378Z,24.92
2022-12-16T06:21:06.910Z,24.58
2022-12-16T06:24:43.167Z,24.45
2022-12-16T06:26:03.400Z,34.15
2022-12-16T06:27:24.160Z,23.65
2022-12-16T06:28:46.021Z,24.88
2022-12-16T06:30:06.324Z,26.83
2022-12-16T06:31:27.209Z,27.38
2022-12-16T06:32:47.688Z,24.17
2022-12-16T06:34:07.967Z,25.45
2022-12-16T06:35:28.565Z,26.35
2022-12-16T06:36:48.933Z,26.10
2022-12-16T06:38:09.714Z,25.90
2022-12-16T06:39:30.149Z,25.80
2022-12-16T06:40:50.579Z,36.33
2022-12-16T06:42:10.895Z,28.65
2022-12-16T06:43:31.663Z,27.13
2022-12-16T06:44:52.426Z,25.83
2022-12-16T06:46:13.073Z,31.40
2022-12-16T06:47:33.486Z,29.50
2022-12-16T06:48:53.931Z,25.75
2022-12-16T06:50:14.172Z,30.20
2022-12-16T06:51:34.659Z,32.58
2022-12-16T06:52:55.133Z,27.15
2022-12-16T06:54:16.014Z,28.67
2022-12-16T06:55:36.503Z,27.95
2022-12-16T06:56:56.784Z,25.40
2022-12-16T06:58:17.708Z,27.23
2022-12-16T06:59:38.457Z,27.52
2022-12-16T07:00:59.061Z,25.80
2022-12-16T07:02:19.433Z,24.45
2022-12-16T07:03:39.853Z,24.83
2022-12-16T07:05:00.480Z,23.45
2022-12-16T07:06:20.934Z,28.90
2022-12-16T07:07:41.361Z,27.85
2022-12-16T07:09:01.741Z,28.52
2022-12-16T07:10:22.809Z,27.55
2022-12-16T07:11:43.152Z,27.98
2022-12-16T07:13:03.616Z,31.83
2022-12-16T07:14:24.145Z,26.70
2022-12-16T07:15:44.528Z,28.08
2022-12-16T07:17:04.889Z,27.65
2022-12-16T07:18:25.319Z,28.38
2022-12-16T07:19:45.739Z,28.73
2022-12-16T07:21:06.190Z,29.95
2022-12-16T07:22:26.634Z,30.52
2022-12-16T07:23:47.077Z,27.17
2022-12-16T07:25:07.337Z,28.60
2022-12-16T07:26:27.685Z,25.75
2022-12-16T07:27:48.189Z,26.15
2022-12-16T07:29:08.703Z,25.58
2022-12-16T07:30:29.637Z,26.52
2022-12-16T07:31:50.138Z,27.10
2022-12-16T07:33:10.172Z,26.35
2022-12-16T07:34:31.754Z,29.38
2022-12-16T07:35:53.804Z,28.95
2022-12-16T07:37:14.404Z,28.77
2022-12-16T07:38:34.864Z,32.00
2022-12-16T07:39:55.677Z,32.03
2022-12-16T07:41:15.927Z,36.05
2022-12-16T07:42:37.836Z,29.85
2022-12-16T07:43:58.021Z,28.52
2022-12-16T07:45:18.407Z,32.03
2022-12-16T07:46:38.697Z,30.75
2022-12-16T07:48:06.208Z,26.70
2022-12-16T07:49:26.741Z,27.98
2022-12-16T07:50:47.302Z,28.77
2022-12-16T07:52:07.626Z,30.50
2022-12-16T07:53:31.304Z,34.47
2022-12-16T07:54:51.797Z,30.83
2022-12-16T07:56:13.193Z,33.53
2022-12-16T07:57:33.640Z,33.17
2022-12-16T07:58:54.011Z,30.10
2022-12-16T08:00:15.793Z,32.08
2022-12-16T08:01:36.214Z,31.90
2022-12-16T08:02:56.630Z,34.65
2022-12-16T08:04:17.112Z,35.72
2022-12-16T08:05:37.623Z,30.35
2022-12-16T08:06:58.015Z,30.80
2022-12-16T08:08:18.364Z,38.35
2022-12-16T08:09:38.878Z,33.47
2022-12-16T08:10:59.244Z,30.08
2022-12-16T08:12:19.595Z,31.13
2022-12-16T08:13:40.417Z,33.53
2022-12-16T08:15:00.714Z,33.63
2022-12-16T08:16:21.190Z,34.13
2022-12-16T08:17:41.452Z,33.30
2022-12-16T08:19:06.197Z,38.80
2022-12-16T08:20:30.846Z,36.78
2022-12-16T08:21:51.283Z,33.53
2022-12-16T08:23:11.526Z,38.88
2022-12-16T08:24:31.819Z,32.58
2022-12-16T08:25:52.345Z,36.75
2022-12-16T08:27:15.697Z,36.67
2022-12-16T08:28:36.177Z,32.22
2022-12-16T08:29:56.454Z,32.22
2022-12-16T08:31:16.887Z,30.63
2022-12-16T08:32:37.163Z,32.63
2022-12-16T08:33:57.680Z,37.55
2022-12-16T08:35:18.264Z,33.05
2022-12-16T08:36:38.724Z,30.73
2022-12-16T08:37:59.001Z,34.75
2022-12-16T08:39:19.342Z,32.35
2022-12-16T08:40:39.609Z,31.52
2022-12-16T08:42:00.156Z,61.60
2022-12-16T08:43:20.604Z,44.15
2022-12-16T08:44:40.939Z,34.30
2022-12-16T08:46:01.877Z,36.47
2022-12-16T08:47:22.522Z,42.00
2022-12-16T08:48:42.821Z,35.78
2022-12-16T08:50:03.209Z,36.70
2022-12-16T08:51:24.697Z,42.58
2022-12-16T08:52:45.203Z,30.48
2022-12-16T08:54:05.827Z,31.40
2022-12-16T08:55:29.683Z,30.42
2022-12-16T08:56:50.269Z,31.55
2022-12-16T08:58:14.351Z,33.53
2022-12-16T08:59:34.606Z,28.52
2022-12-16T09:00:54.908Z,29.42
2022-12-16T09:02:16.355Z,29.17
2022-12-16T09:03:37.405Z,30.52
2022-12-16T09:04:58.193Z,32.28
2022-12-16T09:06:18.687Z,28.25
2022-12-16T09:07:38.840Z,27.05
2022-12-16T09:08:59.422Z,30.08
2022-12-16T09:10:19.733Z,29.67
2022-12-16T09:11:40.058Z,33.20
2022-12-16T09:13:00.543Z,33.05
2022-12-16T09:14:40.863Z,27.40
2022-12-16T09:16:01.112Z,30.02
2022-12-16T09:17:21.414Z,30.08
2022-12-16T09:18:41.718Z,29.40
2022-12-16T09:20:02.083Z,30.27
2022-12-16T09:21:22.572Z,28.98
2022-12-16T09:22:43.043Z,30.23
2022-12-16T09:24:03.189Z,30.73
2022-12-16T09:25:23.472Z,30.55
2022-12-16T09:26:48.393Z,30.15
2022-12-16T09:28:08.823Z,29.00
2022-12-16T09:29:29.124Z,27.50
2022-12-16T09:30:49.716Z,34.05
2022-12-16T09:32:11.126Z,25.10
2022-12-16T09:33:31.848Z,32.63
2022-12-16T09:34:52.501Z,34.13
2022-12-16T09:36:12.995Z,31.75
2022-12-16T09:37:33.490Z,34.83
2022-12-16T09:38:53.957Z,30.77
2022-12-16T09:40:14.827Z,30.50
2022-12-16T09:41:56.781Z,33.92
2022-12-16T09:43:48.504Z,32.53
2022-12-16T09:45:29.030Z,32.97
2022-12-16T09:47:11.110Z,30.67
2022-12-16T09:48:56.896Z,29.70
2022-12-16T09:50:17.550Z,30.40
2022-12-16T09:51:39.197Z,31.98
2022-12-16T09:53:10.697Z,31.58
2022-12-16T09:54:34.655Z,27.75
2022-12-16T09:56:03.019Z,30.13
2022-12-16T09:57:23.976Z,24.38
2022-12-16T09:58:47.993Z,30.10
2022-12-16T10:00:15.626Z,28.20
2022-12-16T10:01:36.176Z,28.25
2022-12-16T10:03:01.765Z,29.90
2022-12-16T10:04:25.965Z,31.95
2022-12-16T10:05:55.949Z,27.50
2022-12-16T10:07:19.742Z,30.10
2022-12-16T10:08:48.022Z,29.15
2022-12-16T10:10:36.504Z,31.27
2022-12-16T10:12:35.038Z,29.65
2022-12-16T10:14:15.976Z,30.42
2022-12-16T10:16:01.412Z,39.10
2022-12-16T10:17:31.164Z,27.13
2022-12-16T10:19:16.206Z,29.98
2022-12-16T10:20:48.353Z,33.88
2022-12-16T10:22:38.023Z,31.35
2022-12-16T10:24:17.711Z,31.17
2022-12-16T10:26:11.730Z,28.98
2022-12-16T10:27:38.063Z,27.55
2022-12-16T10:29:06.731Z,32.95
2022-12-16T10:30:33.968Z,34.45
2022-12-16T10:31:55.911Z,30.50
2022-12-16T10:33:17.197Z,40.28
2022-12-16T10:34:40.569Z,32.70
2022-12-16T10:36:08.048Z,33.50
2022-12-16T10:37:37.127Z,34.30
2022-12-16T10:39:19.197Z,31.63
2022-12-16T10:40:43.680Z,31.27
2022-12-16T10:42:07.305Z,34.67
2022-12-16T10:43:43.146Z,37.92
2022-12-16T10:45:14.008Z,31.60
2022-12-16T10:46:40.948Z,32.08
2022-12-16T10:48:01.608Z,32.38
2022-12-16T10:49:22.126Z,33.78
2022-12-16T10:50:42.596Z,31.17
2022-12-16T10:52:08.957Z,29.63
2022-12-16T10:53:34.869Z,31.80
2022-12-16T10:55:04.921Z,29.40
2022-12-16T10:56:51.580Z,32.08
2022-12-16T10:58:34.245Z,29.65
2022-12-16T10:59:58.949Z,35.38
2022-12-16T11:01:19.631Z,31.40
2022-12-16T11:02:43.187Z,29.58
2022-12-16T11:04:03.617Z,34.65
2022-12-16T11:05:50.601Z,37.30
2022-12-16T11:07:10.891Z,33.75
2022-12-16T11:09:03.605Z,29.52
2022-12-16T11:10:47.387Z,32.45
2022-12-16T11:12:21.390Z,28.95
2022-12-16T11:13:47.456Z,32.92
2022-12-16T11:15:31.467Z,33.92
2022-12-16T11:16:51.873Z,32.45
2022-12-16T11:18:25.471Z,47.17
2022-12-16T11:19:47.762Z,32.53
2022-12-16T11:21:29.496Z,31.40
2022-12-16T11:23:06.651Z,34.20
2022-12-16T11:24:31.871Z,33.47
2022-12-16T11:25:52.292Z,30.42
2022-12-16T11:27:15.310Z,29.50
2022-12-16T11:28:36.376Z,32.85
2022-12-16T11:30:12.048Z,30.50
2022-12-16T11:31:35.182Z,31.48
2022-12-16T11:32:57.744Z,35.88
2022-12-16T11:34:21.012Z,42.85
2022-12-16T11:35:46.572Z,30.58
2022-12-16T11:37:10.857Z,28.52
2022-12-16T11:38:45.673Z,31.65
2022-12-16T11:40:06.189Z,29.88
2022-12-16T11:41:33.634Z,27.00
2022-12-16T11:42:54.924Z,26.83
2022-12-16T11:44:19.045Z,28.17
2022-12-16T11:45:40.122Z,27.70
2022-12-16T11:47:00.667Z,27.45
2022-12-16T11:48:51.641Z,29.13
2022-12-16T11:50:12.155Z,32.95
2022-12-16T11:51:35.094Z,23.42
2022-12-16T11:52:56.507Z,27.67
2022-12-16T11:54:49.341Z,24.63
2022-12-16T11:56:16.012Z,21.13
2022-12-16T11:58:08.248Z,24.88
2022-12-16T11:59:44.492Z,23.52
2022-12-16T12:01:21.267Z,25.88
2022-12-16T12:02:56.168Z,27.95
2022-12-16T12:04:16.480Z,26.27
2022-12-16T12:05:43.577Z,25.25
2022-12-16T12:07:18.958Z,27.35
2022-12-16T12:08:42.412Z,28.10
2022-12-16T12:10:16.847Z,32.13
2022-12-16T12:11:50.348Z,32.40
2022-12-16T12:13:30.526Z,32.25
2022-12-16T12:15:05.604Z,29.17
2022-12-16T12:16:37.192Z,33.78
2022-12-16T12:18:15.364Z,31.80
2022-12-16T12:19:58.388Z,32.80
2022-12-16T12:21:30.995Z,27.67
2022-12-16T12:22:56.717Z,31.00
2022-12-16T12:24:25.263Z,28.70
2022-12-16T12:25:45.575Z,28.20
2022-12-16T12:27:21.281Z,33.40
2022-12-16T12:28:53.358Z,31.75
2022-12-16T12:30:33.043Z,32.08
2022-12-16T12:32:23.529Z,28.08
2022-12-16T12:34:10.583Z,30.60
2022-12-16T12:35:52.670Z,23.63
2022-12-16T12:37:28.132Z,25.77
2022-12-16T12:39:02.486Z,30.45
2022-12-16T12:40:47.974Z,26.73
2022-12-16T12:42:50.032Z,23.95
2022-12-16T12:44:24.948Z,25.45
2022-12-16T12:45:50.985Z,25.30
2022-12-16T12:47:20.842Z,21.35
2022-12-16T12:48:46.455Z,26.25
2022-12-16T12:50:19.027Z,23.50
2022-12-16T12:52:02.521Z,26.83
2022-12-16T12:53:45.184Z,26.25
2022-12-16T12:55:15.633Z,18.13
2022-12-16T12:57:00.881Z,22.13
2022-12-16T12:58:24.861Z,25.40
2022-12-16T13:00:01.718Z,20.58
2022-12-16T13:01:26.592Z,24.90
2022-12-16T13:02:53.558Z,29.52
2022-12-16T13:04:25.393Z,23.23
2022-12-16T13:05:49.364Z,26.38
2022-12-16T13:07:13.593Z,26.52
2022-12-16T13:09:18.015Z,27.35
2022-12-16T13:10:43.693Z,27.35
2022-12-16T13:12:25.556Z,20.40
2022-12-16T13:13:49.949Z,23.70
2022-12-16T13:15:13.527Z,24.48
2022-12-16T13:17:02.656Z,19.73
2022-12-16T13:18:23.127Z,25.75
2022-12-16T13:19:49.038Z,22.65
2022-12-16T13:21:15.310Z,25.42
2022-12-16T13:22:50.569Z,20.35
2022-12-16T13:24:10.950Z,21.98
2022-12-16T13:26:09.299Z,32.33
2022-12-16T13:27:53.713Z,19.63
2022-12-16T13:29:33.249Z,19.55
2022-12-16T13:30:54.145Z,22.45
2022-12-16T13:32:35.743Z,23.27
2022-12-16T13:33:56.083Z,18.17
2022-12-16T13:35:28.364Z,25.85
2022-12-16T13:36:53.433Z,28.08
2022-12-16T13:38:17.823Z,23.00
2022-12-16T13:39:48.793Z,25.25
2022-12-16T13:41:20.317Z,23.95
2022-12-16T13:42:58.443Z,21.80
2022-12-16T13:44:18.969Z,22.73
2022-12-16T13:46:20.115Z,24.00
2022-12-16T13:47:58.792Z,27.98
2022-12-16T13:49:57.595Z,27.70
2022-12-16T13:51:19.072Z,22.30
2022-12-16T13:52:59.704Z,20.95
2022-12-16T13:54:21.385Z,25.83
2022-12-16T13:55:50.036Z,27.88
2022-12-16T13:57:10.642Z,30.25
2022-12-16T13:58:52.263Z,26.70
2022-12-16T14:00:13.464Z,26.83
2022-12-16T14:01:41.048Z,26.17
2022-12-16T14:03:12.950Z,27.77
2022-12-16T14:04:43.889Z,24.90
2022-12-16T14:06:04.369Z,29.42
2022-12-16T14:07:25.099Z,29.23
2022-12-16T14:08:51.702Z,25.52
2022-12-16T14:10:12.283Z,24.77
2022-12-16T14:11:41.389Z,30.60
2022-12-16T14:13:18.276Z,23.55
2022-12-16T14:14:46.206Z,38.80
2022-12-16T14:16:17.365Z,29.80
2022-12-16T14:18:05.587Z,31.45
2022-12-16T14:19:32.826Z,29.50
2022-12-16T14:21:05.808Z,31.17
2022-12-16T14:22:44.841Z,30.15
2022-12-16T14:24:12.390Z,26.15
2022-12-16T14:25:36.447Z,26.05
2022-12-16T14:26:57.545Z,23.50
2022-12-16T14:28:19.192Z,28.60
2022-12-16T14:29:41.303Z,25.95
2022-12-16T14:31:02.296Z,28.83
2022-12-16T14:32:38.348Z,26.48
2022-12-16T14:33:59.637Z,22.88
2022-12-16T14:35:20.960Z,27.65
2022-12-16T14:36:47.084Z,22.90
2022-12-16T14:38:07.276Z,26.23
2022-12-16T14:39:38.812Z,29.60
2022-12-16T14:40:59.296Z,30.00
2022-12-16T14:42:19.873Z,23.95
2022-12-16T14:43:42.438Z,33.50
2022-12-16T14:45:06.728Z,25.42
2022-12-16T14:46:46.864Z,30.38
2022-12-16T14:48:07.153Z,27.05
2022-12-16T14:49:39.085Z,34.50
2022-12-16T14:50:59.392Z,31.95
2022-12-16T14:52:19.957Z,39.13
2022-12-16T14:53:42.489Z,36.45
2022-12-16T14:55:02.785Z,24.05
2022-12-16T14:56:33.516Z,33.08
2022-12-16T14:57:54.306Z,28.05
2022-12-16T14:59:27.792Z,25.95
2022-12-16T15:00:48.469Z,28.02
2022-12-16T15:02:13.492Z,34.40
2022-12-16T15:03:34.884Z,27.83
2022-12-16T15:04:55.794Z,27.50
2022-12-16T15:06:17.399Z,31.08
2022-12-16T15:07:38.088Z,33.42
2022-12-16T15:09:07.289Z,25.73
2022-12-16T15:10:33.193Z,27.83
2022-12-16T15:11:56.035Z,28.25
2022-12-16T15:13:37.087Z,29.10
2022-12-16T15:14:59.958Z,25.88
2022-12-16T15:16:21.680Z,25.70
2022-12-16T15:17:49.333Z,27.48
2022-12-16T15:19:18.614Z,29.00
2022-12-16T15:20:46.397Z,24.65
2022-12-16T15:22:07.174Z,31.23
2022-12-16T15:23:45.371Z,38.00
2022-12-16T15:25:06.607Z,27.50
2022-12-16T15:26:27.267Z,31.75
2022-12-16T15:27:54.631Z,31.10
2022-12-16T15:29:15.111Z,30.35
2022-12-16T15:30:53.257Z,32.75
2022-12-16T15:32:13.693Z,32.17
2022-12-16T15:33:37.439Z,30.77
2022-12-16T15:35:06.572Z,34.08
2022-12-16T15:36:46.386Z,31.13
2022-12-16T15:38:06.673Z,30.33
2022-12-16T15:39:41.099Z,35.25
2022-12-16T15:41:09.069Z,33.78
2022-12-16T15:42:43.150Z,34.33
2022-12-16T15:44:04.988Z,33.83
2022-12-16T15:45:41.858Z,33.08
2022-12-16T15:47:06.736Z,31.08
2022-12-16T15:48:49.685Z,30.00
2022-12-16T15:50:10.134Z,32.55
2022-12-16T15:51:39.633Z,30.85
2022-12-16T15:53:02.481Z,33.17
2022-12-16T15:54:23.456Z,31.83
2022-12-16T15:56:04.913Z,33.38
2022-12-16T15:57:47.977Z,31.23
2022-12-16T15:59:25.154Z,31.38
2022-12-16T16:00:48.510Z,32.65
2022-12-16T16:02:09.181Z,34.38
2022-12-16T16:03:35.708Z,38.30
2022-12-16T16:04:56.611Z,34.38
2022-12-16T16:06:17.227Z,31.88
2022-12-16T16:07:40.269Z,34.50
2022-12-16T16:09:00.520Z,33.40
2022-12-16T16:10:38.750Z,33.47
2022-12-16T16:11:59.543Z,37.97
2022-12-16T16:13:20.251Z,37.38
2022-12-16T16:14:40.524Z,29.75
2022-12-16T16:16:01.248Z,35.35
2022-12-16T16:17:21.700Z,40.92
2022-12-16T16:18:41.977Z,37.97
2022-12-16T16:20:04.079Z,33.60
2022-12-16T16:21:24.693Z,35.28
2022-12-16T16:22:45.196Z,35.25
2022-12-16T16:24:12.993Z,31.75
2022-12-16T16:25:33.628Z,35.38
2022-12-16T16:26:54.432Z,33.03
2022-12-16T16:28:14.710Z,32.53
2022-12-16T16:29:35.299Z,32.10
2022-12-16T16:30:55.613Z,36.38
2022-12-16T16:32:20.997Z,32.92
2022-12-16T16:33:41.488Z,35.17
2022-12-16T16:35:02.070Z,38.53
2022-12-16T16:36:33.641Z,48.97
2022-12-16T16:37:54.316Z,37.45
2022-12-16T16:39:14.486Z,39.05
2022-12-16T16:40:51.252Z,38.35
2022-12-16T16:42:11.443Z,40.00
2022-12-16T16:43:32.182Z,38.67
2022-12-16T16:44:52.512Z,39.50
2022-12-16T16:46:14.082Z,39.00
2022-12-16T16:47:36.058Z,38.88
2022-12-16T16:48:56.541Z,36.80
2022-12-16T16:50:19.493Z,38.40
2022-12-16T16:51:40.280Z,41.47
2022-12-16T16:53:00.779Z,38.05
2022-12-16T16:54:21.144Z,36.55
2022-12-16T16:55:42.913Z,36.72
2022-12-16T16:57:03.562Z,41.22
2022-12-16T16:58:29.567Z,36.72
2022-12-16T16:59:50.160Z,38.10
2022-12-16T17:01:10.425Z,38.22
2022-12-16T17:02:40.843Z,34.80
2022-12-16T17:04:01.604Z,43.83
2022-12-16T17:05:22.689Z,40.45
2022-12-16T17:06:43.232Z,34.97
2022-12-16T17:08:03.609Z,39.80
2022-12-16T17:09:24.078Z,41.58